West Palm Beach, FL (33401)

10:56 AM EDT on July 24, 2016 (GMT -0400)
Palm Beach, FL | | Change Station

Elev 8 ft 26.71 °N, 80.04 °W | Updated 15 seconds ago

Mostly Cloudy
Mostly Cloudy
87.8 °F
Feels Like 99 °F
N
2.9
Wind Variable Wind from East
Gusts 5.0 mph

Today
High -- | Low -- °F
--% Chance of Precip.
Yesterday
High -- | Low -- °F
Precip. -- in
Pressure 30.07 in
Visibility 10.0 miles
Clouds Scattered Clouds 2800 ft
Mostly Cloudy 15000 ft
Mostly Cloudy 25000 ft
Heat Index 99 °F
Dew Point 76 °F
Humidity 68%
Rainfall 0.00 in
Snow Depth Not available.
6:41 AM 8:12 PM
Waning Gibbous, 75% visible
METAR KPBI 241453Z 00000KT 10SM SCT028 BKN150 BKN250 29/22 A3007 RMK AO2 SLP181 TCU DSNT E T02940217 51005
Pressure 30.07 in
Visibility 10.0 miles
Clouds Scattered Clouds 2800 ft
Mostly Cloudy 15000 ft
Mostly Cloudy 25000 ft
Heat Index 99 °F
Dew Point 76 °F
Humidity 68%
Rainfall 0.00 in
Snow Depth Not available.
6:41 AM 8:12 PM
Waning Gibbous, 75% visible
METAR KPBI 241453Z 00000KT 10SM SCT028 BKN150 BKN250 29/22 A3007 RMK AO2 SLP181 TCU DSNT E T02940217 51005

10-Day Weather Forecast

Almanac

Astronomy

Jul. 24, 2016 Rise Set
Actual Time
Civil Twilight
Nautical Twilight
Astronomical Twilight
Moon
Length of Visible Light
Length of Day
Tomorrow will be .
, % of the Moon is Illuminated

Today's Extremes

State Highs State Lows

Community

WunderPhotos

Upload Photos

1,927,071 photos uploaded!

WunderBlog® & News

Nearby

Air Quality

  Air Quality AQ Index Pollutant
Not available.

Snow Depth

Station Depth Elevation

Earthquake Activity

City Distance Mag. Time & Date
Minimum magnitude displayed is 2.5.

Coastal Water Temperatures

Place Temperature

Stations

Nearby Weather Stations

Station Location Temp. Windchill Dew Point Humidity Wind Precip. Elev Updated Type
                   

Watches & Warnings

There are currently no watches in effect.